Time;durP1;ratioP1;P1;durP2;ratioP2;P2;SDS_P1;SDS_P2;PMS_P1;PMS_P2;Temp;Humidity;BMP_temperature;BMP_pressure;BME280_temperature;BME280_humidity;BME280_pressure;Samples;Min_cycle;Max_cycle;Signal;HPM_P1;HPM_P2
2023/05/16 00:00:52;;;;;;;12.50;2.53;;;9.10;99.90;;;;;;5023858;28;20131;-77
2023/05/16 00:03:18;;;;;;;8.35;1.98;;;9.10;99.90;;;;;;5023348;28;20049;-76
2023/05/16 00:05:50;;;;;;;10.85;1.95;;;9.10;99.90;;;;;;5032045;28;20609;-76
2023/05/16 00:08:16;;;;;;;9.25;2.10;;;9.10;99.90;;;;;;5030915;28;20045;-75
2023/05/16 00:10:43;;;;;;;10.20;2.10;;;9.10;99.90;;;;;;5038609;28;20081;-75
2023/05/16 00:13:08;;;;;;;15.40;2.55;;;9.10;99.90;;;;;;5031675;28;20088;-76
2023/05/16 00:15:34;;;;;;;13.27;2.17;;;9.10;99.90;;;;;;5032946;28;20696;-74
2023/05/16 00:18:00;;;;;;;10.85;2.17;;;9.10;99.90;;;;;;5024035;28;20053;-75
2023/05/16 00:20:26;;;;;;;13.32;2.15;;;9.10;99.90;;;;;;5021568;28;20420;-76
2023/05/16 00:22:53;;;;;;;8.05;2.47;;;9.10;99.90;;;;;;5031599;28;20087;-77
2023/05/16 00:25:19;;;;;;;9.77;2.10;;;9.10;99.90;;;;;;5028080;28;20045;-75
2023/05/16 00:27:45;;;;;;;10.52;2.22;;;9.10;99.90;;;;;;5019658;28;20166;-74
2023/05/16 00:30:11;;;;;;;8.57;2.03;;;9.00;99.90;;;;;;5036578;28;20041;-76
2023/05/16 00:32:37;;;;;;;6.90;1.77;;;9.00;99.90;;;;;;5033933;28;20049;-77
2023/05/16 00:35:03;;;;;;;8.18;2.00;;;9.00;99.90;;;;;;5033920;28;20049;-75
2023/05/16 00:37:29;;;;;;;15.30;2.15;;;9.00;99.90;;;;;;5036074;28;20190;-75
2023/05/16 00:39:55;;;;;;;9.43;2.10;;;9.00;99.90;;;;;;5034470;28;20128;-75
2023/05/16 00:42:21;;;;;;;9.27;1.98;;;9.00;99.90;;;;;;5006274;28;20136;-76
2023/05/16 00:44:47;;;;;;;12.10;3.03;;;9.00;99.90;;;;;;5022966;28;20078;-76
2023/05/16 00:47:13;;;;;;;8.55;1.92;;;9.00;99.90;;;;;;5019928;28;20045;-75
2023/05/16 00:49:39;;;;;;;11.85;2.00;;;9.00;99.90;;;;;;5016837;28;20057;-76
2023/05/16 00:52:05;;;;;;;9.15;2.20;;;9.00;99.90;;;;;;5031682;28;20451;-76
2023/05/16 00:54:31;;;;;;;13.77;2.90;;;9.00;99.90;;;;;;5033754;28;20461;-76
2023/05/16 00:56:57;;;;;;;10.38;2.13;;;9.00;99.90;;;;;;5034594;28;20960;-75
2023/05/16 00:59:23;;;;;;;11.43;2.20;;;9.00;99.90;;;;;;5052493;28;20044;-74
2023/05/16 01:01:50;;;;;;;13.23;2.10;;;9.00;99.90;;;;;;5036265;28;20045;-74
2023/05/16 01:04:22;;;;;;;8.63;2.00;;;9.00;99.90;;;;;;5022217;28;20045;-77
2023/05/16 01:06:48;;;;;;;11.50;2.00;;;9.00;99.90;;;;;;5034075;28;20049;-75
2023/05/16 01:09:14;;;;;;;13.45;2.38;;;8.90;99.90;;;;;;5034612;28;20047;-74
2023/05/16 01:11:59;;;;;;;9.80;2.00;;;8.90;99.90;;;;;;5035999;28;20793;-76
2023/05/16 01:14:43;;;;;;;9.13;2.33;;;8.90;99.90;;;;;;5037614;28;20049;-76
2023/05/16 01:17:46;;;;;;;6.13;1.95;;;8.90;99.90;;;;;;5033222;28;20045;-75
2023/05/16 01:20:30;;;;;;;8.25;1.85;;;8.90;99.90;;;;;;5031542;28;20092;-75
2023/05/16 01:23:42;;;;;;;9.18;2.15;;;8.90;99.90;;;;;;5035101;28;20617;-75
2023/05/16 01:26:28;;;;;;;8.20;1.67;;;8.90;99.90;;;;;;4998650;28;22312;-75
2023/05/16 01:28:54;;;;;;;;;;;8.90;99.90;;;;;;5038460;28;20049;-75
2023/05/16 01:31:22;;;;;;;9.07;1.90;;;8.80;99.90;;;;;;5040293;28;19931;-76
2023/05/16 01:33:49;;;;;;;6.32;1.60;;;8.80;99.90;;;;;;5036357;28;20056;-74
2023/05/16 01:36:33;;;;;;;8.05;2.42;;;8.80;99.90;;;;;;5025770;28;20142;-74
2023/05/16 01:39:28;;;;;;;8.05;2.00;;;8.80;99.90;;;;;;5028234;28;20045;-75
2023/05/16 01:41:58;;;;;;;5.40;1.63;;;8.80;99.90;;;;;;5041430;28;20049;-75
2023/05/16 01:44:31;;;;;;;10.07;1.60;;;8.80;99.90;;;;;;5041479;28;20049;-75
2023/05/16 01:47:01;;;;;;;11.20;1.70;;;8.80;99.90;;;;;;5044424;28;20662;-75
2023/05/16 01:49:35;;;;;;;10.10;1.90;;;8.80;99.90;;;;;;5040425;28;20152;-77
2023/05/16 01:52:19;;;;;;;7.38;1.92;;;8.80;99.90;;;;;;5040111;28;20056;-75
2023/05/16 01:54:48;;;;;;;12.05;2.53;;;8.70;99.90;;;;;;5037245;28;20049;-75
2023/05/16 01:57:18;;;;;;;7.47;2.00;;;8.70;99.90;;;;;;5045311;28;20504;-77
2023/05/16 01:59:46;;;;;;;10.07;1.88;;;8.70;99.90;;;;;;5043380;28;20123;-75
2023/05/16 02:02:12;;;;;;;10.38;2.08;;;8.80;99.90;;;;;;5042675;28;20049;-74
2023/05/16 02:04:37;;;;;;;13.85;2.00;;;8.70;99.90;;;;;;5020108;28;20095;-76
2023/05/16 02:07:03;;;;;;;9.55;2.83;;;8.80;99.90;;;;;;5036566;28;20057;-76
2023/05/16 02:09:29;;;;;;;9.90;1.88;;;8.80;99.90;;;;;;5019378;28;20068;-74
2023/05/16 02:11:55;;;;;;;7.45;2.30;;;8.70;99.90;;;;;;5020842;28;20128;-74
2023/05/16 02:14:20;;;;;;;11.23;2.05;;;8.70;99.90;;;;;;5009638;28;20054;-74
2023/05/16 02:16:47;;;;;;;11.43;2.40;;;8.70;99.90;;;;;;5036926;28;20107;-75
2023/05/16 02:19:19;;;;;;;12.65;2.13;;;8.70;99.90;;;;;;5032632;28;20045;-74
2023/05/16 02:21:45;;;;;;;8.57;2.30;;;8.70;99.90;;;;;;5035837;28;20064;-75
2023/05/16 02:24:11;;;;;;;8.23;1.85;;;8.80;99.90;;;;;;5037833;28;20552;-75
2023/05/16 02:26:40;;;;;;;10.10;2.28;;;8.80;99.90;;;;;;5031822;28;20049;-76
2023/05/16 02:29:05;;;;;;;11.93;2.03;;;8.80;99.90;;;;;;5028904;28;20126;-75
2023/05/16 02:31:35;;;;;;;8.30;1.83;;;8.80;99.90;;;;;;5026752;28;20060;-74
2023/05/16 02:34:01;;;;;;;10.73;1.90;;;8.80;99.90;;;;;;5032037;28;20091;-75
2023/05/16 02:36:27;;;;;;;9.25;2.53;;;8.80;99.90;;;;;;5036056;28;20111;-76
2023/05/16 02:38:53;;;;;;;9.48;1.80;;;8.80;99.90;;;;;;5023412;28;20045;-75
2023/05/16 02:41:21;;;;;;;9.20;1.70;;;8.80;99.90;;;;;;5033278;28;20051;-77
2023/05/16 02:43:47;;;;;;;9.07;1.88;;;8.70;99.90;;;;;;5035870;28;20523;-75
2023/05/16 02:46:27;;;;;;;12.18;2.80;;;8.70;99.90;;;;;;5018847;28;20223;-75
2023/05/16 02:48:53;;;;;;;13.30;1.90;;;8.70;99.90;;;;;;5042872;28;20400;-76
2023/05/16 02:51:21;;;;;;;12.07;1.67;;;8.70;99.90;;;;;;5020191;28;20056;-76
2023/05/16 02:53:47;;;;;;;9.55;2.00;;;8.70;99.90;;;;;;5035882;28;20050;-76
2023/05/16 02:56:13;;;;;;;8.07;1.95;;;8.70;99.90;;;;;;5011468;28;20278;-74
2023/05/16 02:58:48;;;;;;;11.48;1.70;;;8.70;99.90;;;;;;5008107;28;20045;-76
2023/05/16 03:01:14;;;;;;;10.35;1.70;;;8.80;99.90;;;;;;5037493;28;20049;-76
2023/05/16 03:03:40;;;;;;;7.13;2.05;;;8.80;99.90;;;;;;5036436;28;20072;-76
2023/05/16 03:06:06;;;;;;;7.53;1.85;;;8.80;99.90;;;;;;5034862;28;20420;-75
2023/05/16 03:08:32;;;;;;;9.70;2.03;;;8.80;99.90;;;;;;5016012;28;20040;-75
2023/05/16 03:10:58;;;;;;;8.15;1.77;;;8.80;99.90;;;;;;5019466;28;20124;-76
2023/05/16 03:13:24;;;;;;;6.15;1.40;;;8.80;99.90;;;;;;5025586;28;20125;-76
2023/05/16 03:15:50;;;;;;;10.07;1.65;;;8.80;99.90;;;;;;5032402;28;20061;-76
2023/05/16 03:18:15;;;;;;;8.93;1.88;;;8.80;99.90;;;;;;5038265;28;20049;-75
2023/05/16 03:20:41;;;;;;;9.68;1.88;;;8.90;99.90;;;;;;5035191;28;20049;-75
2023/05/16 03:23:07;;;;;;;7.95;1.90;;;8.90;99.90;;;;;;5029545;28;20094;-77
2023/05/16 03:25:36;;;;;;;6.90;1.90;;;8.90;99.90;;;;;;5025145;28;20243;-76
2023/05/16 03:28:04;;;;;;;9.85;2.22;;;8.80;99.90;;;;;;5025224;28;20048;-76
2023/05/16 03:30:29;;;;;;;10.48;1.70;;;8.90;99.90;;;;;;5037115;28;20080;-76
2023/05/16 03:32:55;;;;;;;7.20;1.75;;;8.90;99.90;;;;;;5035775;28;20813;-75
2023/05/16 03:35:22;;;;;;;8.75;1.83;;;8.90;99.90;;;;;;5016321;28;20536;-77
2023/05/16 03:37:47;;;;;;;8.90;1.80;;;8.90;99.90;;;;;;5036047;28;20040;-76
2023/05/16 03:40:13;;;;;;;6.13;1.50;;;8.90;99.90;;;;;;5026657;28;20052;-76
2023/05/16 03:42:39;;;;;;;6.88;1.70;;;8.90;99.90;;;;;;5015231;28;20087;-75
2023/05/16 03:45:06;;;;;;;13.57;2.00;;;8.90;99.90;;;;;;5029437;28;20116;-76
2023/05/16 03:47:32;;;;;;;8.23;2.00;;;8.90;99.90;;;;;;5014786;28;20083;-76
2023/05/16 03:49:57;;;;;;;5.95;1.40;;;8.90;99.90;;;;;;5039080;28;20051;-76
2023/05/16 03:52:23;;;;;;;7.80;1.60;;;8.90;99.90;;;;;;5003106;28;20736;-77
2023/05/16 03:54:49;;;;;;;8.20;1.70;;;8.90;99.90;;;;;;5031385;28;20056;-76
2023/05/16 03:57:15;;;;;;;8.68;2.20;;;8.90;99.90;;;;;;5024993;28;20045;-76
2023/05/16 03:59:41;;;;;;;12.30;1.70;;;8.90;99.90;;;;;;5010788;28;20110;-77
2023/05/16 04:02:07;;;;;;;7.60;1.80;;;9.00;99.90;;;;;;5016007;28;20056;-77
2023/05/16 04:04:33;;;;;;;8.77;1.60;;;9.00;99.90;;;;;;5012717;28;20033;-76
2023/05/16 04:06:59;;;;;;;8.10;1.88;;;9.10;99.90;;;;;;5024798;28;20049;-75
2023/05/16 04:09:25;;;;;;;9.88;1.50;;;9.10;99.90;;;;;;5025013;28;20506;-77
2023/05/16 04:11:51;;;;;;;6.80;1.58;;;9.20;99.90;;;;;;5015828;28;20147;-76
2023/05/16 04:14:16;;;;;;;10.05;1.77;;;9.20;99.90;;;;;;5020526;28;20045;-77
2023/05/16 04:16:43;;;;;;;8.27;2.08;;;9.20;99.90;;;;;;4997328;28;20130;-76
2023/05/16 04:19:08;;;;;;;8.65;1.83;;;9.20;99.90;;;;;;5024505;28;20061;-76
2023/05/16 04:21:35;;;;;;;5.60;1.35;;;9.30;99.90;;;;;;4997961;28;20070;-76
2023/05/16 04:24:01;;;;;;;6.97;1.40;;;9.30;99.90;;;;;;5027474;28;20044;-75
2023/05/16 04:26:27;;;;;;;7.75;1.63;;;9.30;99.90;;;;;;5026563;28;20629;-76
2023/05/16 04:28:59;;;;;;;8.88;1.52;;;9.30;99.90;;;;;;5028923;28;20480;-75
2023/05/16 04:31:25;;;;;;;6.43;1.33;;;9.30;99.90;;;;;;5012966;28;20484;-79
2023/05/16 04:33:51;;;;;;;4.90;1.27;;;9.30;99.90;;;;;;5024041;28;20052;-75
2023/05/16 04:36:21;;;;;;;6.53;1.30;;;9.30;99.90;;;;;;5010841;28;20488;-75
2023/05/16 04:38:46;;;;;;;3.83;1.10;;;9.20;99.90;;;;;;5009331;28;20042;-76
2023/05/16 04:41:13;;;;;;;5.90;1.00;;;9.20;99.90;;;;;;5020029;28;20045;-75
2023/05/16 04:43:39;;;;;;;8.40;1.58;;;9.20;99.90;;;;;;5018978;28;20428;-76
2023/05/16 04:46:06;;;;;;;4.28;1.20;;;9.20;99.90;;;;;;5011121;28;20053;-77
2023/05/16 04:48:32;;;;;;;6.85;1.30;;;9.20;99.90;;;;;;5025883;28;20484;-76
2023/05/16 04:50:58;;;;;;;6.80;1.38;;;9.20;99.90;;;;;;5028956;28;20457;-77
2023/05/16 04:53:25;;;;;;;8.68;1.38;;;9.30;99.90;;;;;;5016071;28;20049;-76
2023/05/16 04:55:50;;;;;;;7.15;1.70;;;9.30;99.90;;;;;;5028823;28;20052;-77
2023/05/16 04:58:16;;;;;;;9.05;1.80;;;9.30;99.90;;;;;;5033355;28;20500;-76
2023/05/16 05:00:42;;;;;;;3.53;1.25;;;9.40;99.90;;;;;;5037667;28;20052;-76
2023/05/16 05:03:08;;;;;;;9.35;1.52;;;9.40;99.90;;;;;;5017365;28;20110;-77
2023/05/16 05:05:34;;;;;;;7.35;1.55;;;9.40;99.90;;;;;;5022336;28;20179;-74
2023/05/16 05:08:00;;;;;;;9.65;1.77;;;9.50;99.90;;;;;;5027738;28;20050;-76
2023/05/16 05:10:30;;;;;;;4.90;1.35;;;9.60;99.90;;;;;;5014179;28;20063;-76
2023/05/16 05:12:56;;;;;;;5.85;1.25;;;9.60;99.90;;;;;;5013493;28;20624;-75
2023/05/16 05:15:22;;;;;;;3.65;1.35;;;9.50;99.90;;;;;;5011474;28;20047;-76
2023/05/16 05:17:47;;;;;;;3.95;1.55;;;9.50;99.90;;;;;;5034207;28;20049;-76
2023/05/16 05:20:13;;;;;;;5.43;1.33;;;9.60;99.90;;;;;;5023421;28;20452;-74
2023/05/16 05:22:39;;;;;;;9.43;1.38;;;9.60;99.90;;;;;;5008748;28;20131;-76
2023/05/16 05:25:05;;;;;;;5.80;1.33;;;9.60;99.90;;;;;;5007343;28;20053;-76
2023/05/16 05:27:31;;;;;;;14.75;1.95;;;9.70;99.90;;;;;;5026911;28;20040;-75
2023/05/16 05:30:05;;;;;;;8.65;1.30;;;9.80;99.90;;;;;;5014346;28;20106;-77
2023/05/16 05:32:31;;;;;;;6.22;1.50;;;9.80;99.90;;;;;;5013037;28;20052;-75
2023/05/16 05:34:57;;;;;;;8.18;1.52;;;9.90;99.90;;;;;;5025269;28;20104;-75
2023/05/16 05:37:24;;;;;;;7.18;1.58;;;9.90;99.90;;;;;;5033480;28;20526;-75
2023/05/16 05:39:50;;;;;;;6.88;1.50;;;9.90;99.90;;;;;;5010475;28;21734;-76
2023/05/16 05:42:15;;;;;;;8.00;1.50;;;10.20;99.90;;;;;;4997916;28;20060;-77
2023/05/16 05:44:43;;;;;;;4.97;1.33;;;9.80;99.90;;;;;;5031530;28;20049;-76
2023/05/16 05:47:08;;;;;;;10.50;2.17;;;9.80;99.90;;;;;;5018114;28;20052;-76
2023/05/16 05:49:34;;;;;;;5.55;1.30;;;9.70;99.90;;;;;;5016250;28;20416;-76
2023/05/16 05:52:00;;;;;;;9.23;1.83;;;9.80;99.90;;;;;;5010643;28;20052;-76
2023/05/16 05:54:26;;;;;;;6.15;1.67;;;9.80;99.90;;;;;;5021080;28;20559;-75
2023/05/16 05:56:52;;;;;;;7.72;1.50;;;9.90;99.90;;;;;;5014289;28;20038;-76
2023/05/16 05:59:18;;;;;;;8.45;1.30;;;9.90;99.90;;;;;;5025282;28;20042;-76
2023/05/16 06:01:44;;;;;;;5.40;1.52;;;9.90;99.90;;;;;;5024200;28;21177;-75
2023/05/16 06:04:10;;;;;;;5.72;1.45;;;10.00;99.90;;;;;;5029800;28;20088;-77
2023/05/16 06:06:36;;;;;;;8.98;1.95;;;10.10;99.90;;;;;;5018786;28;20041;-76
2023/05/16 06:09:02;;;;;;;6.30;1.50;;;10.10;99.90;;;;;;5020453;28;20033;-75
2023/05/16 06:11:28;;;;;;;9.13;2.05;;;11.00;99.90;;;;;;5039146;28;20048;-76
2023/05/16 06:13:54;;;;;;;6.75;1.63;;;10.10;99.90;;;;;;5025010;28;20507;-76
2023/05/16 06:16:24;;;;;;;11.07;2.05;;;10.10;99.90;;;;;;5030721;28;20118;-76
2023/05/16 06:18:59;;;;;;;7.82;1.40;;;10.20;99.90;;;;;;5030143;28;20041;-76
2023/05/16 06:21:25;;;;;;;14.40;2.22;;;10.30;99.90;;;;;;5026437;28;20055;-76
2023/05/16 06:23:59;;;;;;;6.20;1.50;;;10.50;99.90;;;;;;5028851;28;20072;-76
2023/05/16 06:26:25;;;;;;;7.95;1.60;;;10.60;99.90;;;;;;5017942;28;20083;-76
2023/05/16 06:28:51;;;;;;;6.55;1.55;;;10.80;99.90;;;;;;5034918;28;20045;-76
2023/05/16 06:31:17;;;;;;;20.80;1.85;;;10.90;99.90;;;;;;5019695;28;20045;-75
2023/05/16 06:33:42;;;;;;;7.20;1.40;;;11.00;99.90;;;;;;5030827;28;20684;-75
2023/05/16 06:36:14;;;;;;;6.28;1.45;;;11.20;99.90;;;;;;5021727;28;20059;-76
2023/05/16 06:38:40;;;;;;;7.53;2.03;;;11.20;99.90;;;;;;5013582;28;20053;-76
2023/05/16 06:41:06;;;;;;;7.78;1.63;;;11.30;99.90;;;;;;5035951;28;20049;-77
2023/05/16 06:43:34;;;;;;;12.75;2.25;;;11.30;99.90;;;;;;5021190;28;20041;-76
2023/05/16 06:46:00;;;;;;;8.10;1.60;;;11.30;99.90;;;;;;5022022;28;20123;-76
2023/05/16 06:48:26;;;;;;;7.18;1.40;;;11.20;99.90;;;;;;5042440;28;20048;-76
2023/05/16 06:50:51;;;;;;;10.70;1.70;;;11.20;99.90;;;;;;5025924;28;20048;-77
2023/05/16 06:53:18;;;;;;;8.45;1.75;;;11.20;99.90;;;;;;5034092;28;20047;-76
2023/05/16 06:55:48;;;;;;;6.07;1.58;;;11.10;99.90;;;;;;5037937;28;20068;-77
2023/05/16 06:58:14;;;;;;;4.88;1.50;;;11.10;99.90;;;;;;5039403;28;20408;-75
2023/05/16 07:00:40;;;;;;;9.13;1.98;;;11.00;99.90;;;;;;5023131;28;20059;-76
2023/05/16 07:03:06;;;;;;;8.55;2.03;;;10.90;99.90;;;;;;5039545;28;20049;-75
2023/05/16 07:05:32;;;;;;;9.73;2.15;;;10.90;99.90;;;;;;5021684;28;20051;-75
2023/05/16 07:07:59;;;;;;;5.47;1.80;;;10.80;99.90;;;;;;5042122;28;20087;-75
2023/05/16 07:10:26;;;;;;;7.15;1.48;;;10.90;99.90;;;;;;5022397;28;20044;-76
2023/05/16 07:12:51;;;;;;;8.30;1.90;;;11.00;99.90;;;;;;5035739;28;20057;-76
2023/05/16 07:15:17;;;;;;;7.68;1.60;;;11.30;99.90;;;;;;5024157;28;20099;-75
2023/05/16 07:17:43;;;;;;;7.13;1.63;;;11.40;99.90;;;;;;5024816;28;20059;-76
2023/05/16 07:20:13;;;;;;;5.75;1.35;;;11.60;99.90;;;;;;5020813;28;20385;-76
2023/05/16 07:22:39;;;;;;;6.75;1.67;;;13.20;99.90;;;;;;5035251;28;20066;-77
2023/05/16 07:25:11;;;;;;;9.50;1.60;;;11.90;99.90;;;;;;5032658;28;20085;-78
2023/05/16 07:27:43;;;;;;;7.70;1.70;;;12.10;99.90;;;;;;5036519;28;20044;-77
2023/05/16 07:30:15;;;;;;;6.78;1.50;;;12.40;99.90;;;;;;5034193;28;20045;-76
2023/05/16 07:32:42;;;;;;;7.30;1.70;;;12.50;99.90;;;;;;5034605;28;20040;-76
2023/05/16 07:35:08;;;;;;;9.40;2.00;;;12.50;99.90;;;;;;5035195;28;20042;-77
2023/05/16 07:37:34;;;;;;;7.90;1.50;;;12.60;99.90;;;;;;5017665;28;20048;-76
2023/05/16 07:40:00;;;;;;;9.57;1.50;;;12.90;99.90;;;;;;5033598;28;20049;-77
2023/05/16 07:42:26;;;;;;;7.97;2.03;;;13.00;99.90;;;;;;5036538;28;20053;-77
2023/05/16 07:44:52;;;;;;;8.57;1.40;;;12.90;99.90;;;;;;5019706;28;20049;-76
2023/05/16 07:47:17;;;;;;;8.50;1.73;;;12.90;99.90;;;;;;5012247;28;20553;-77
2023/05/16 07:49:43;;;;;;;7.32;1.85;;;13.00;99.90;;;;;;5020719;28;20053;-77
2023/05/16 07:52:09;;;;;;;55.75;29.92;;;13.10;99.90;;;;;;5027191;28;20886;-77
2023/05/16 07:54:36;;;;;;;93.68;53.92;;;13.20;99.90;;;;;;5019759;28;20037;-76
2023/05/16 07:57:02;;;;;;;62.65;42.35;;;13.30;99.90;;;;;;5021251;28;20141;-77
2023/05/16 07:59:28;;;;;;;14.02;7.28;;;13.50;99.90;;;;;;5019462;28;20045;-75
2023/05/16 08:01:57;;;;;;;11.27;5.22;;;13.70;99.90;;;;;;5034576;28;20055;-77
2023/05/16 08:04:23;;;;;;;17.17;3.65;;;13.90;99.90;;;;;;5010593;28;20045;-75
2023/05/16 08:06:48;;;;;;;5.45;2.00;;;14.10;99.90;;;;;;5028978;28;20042;-76
2023/05/16 08:09:14;;;;;;;5.05;1.30;;;14.30;99.90;;;;;;5033261;28;20056;-76
2023/05/16 08:11:43;;;;;;;9.65;2.58;;;14.40;99.90;;;;;;5035827;28;20516;-74
2023/05/16 08:14:10;;;;;;;6.53;1.50;;;14.60;99.90;;;;;;5019858;28;20056;-76
2023/05/16 08:16:36;;;;;;;8.95;1.65;;;14.90;99.90;;;;;;5029199;28;20064;-75
2023/05/16 08:19:01;;;;;;;8.15;1.85;;;14.90;99.90;;;;;;5042389;28;20049;-77
2023/05/16 08:21:30;;;;;;;8.05;1.60;;;15.00;99.90;;;;;;5035171;28;20388;-76
2023/05/16 08:23:56;;;;;;;7.63;1.80;;;15.10;99.90;;;;;;5042148;28;20049;-75
2023/05/16 08:26:23;;;;;;;7.75;1.90;;;15.30;99.90;;;;;;5032308;28;20045;-76
2023/05/16 08:28:49;;;;;;;6.50;1.50;;;15.30;99.90;;;;;;5039575;28;20091;-75
2023/05/16 08:31:15;;;;;;;7.97;1.55;;;15.30;99.90;;;;;;5027137;28;20496;-75
2023/05/16 08:33:47;;;;;;;9.23;1.52;;;15.40;99.90;;;;;;5050295;28;20079;-76
2023/05/16 08:36:14;;;;;;;6.85;1.40;;;15.50;99.90;;;;;;5029815;28;20088;-77
2023/05/16 08:38:41;;;;;;;8.60;1.95;;;15.70;99.90;;;;;;5033491;28;20048;-77
2023/05/16 08:41:07;;;;;;;6.72;1.58;;;15.60;99.90;;;;;;5026777;28;20049;-76
2023/05/16 08:43:34;;;;;;;9.10;1.65;;;15.70;99.90;;;;;;5037212;28;20057;-76
2023/05/16 08:45:59;;;;;;;5.20;1.77;;;15.80;99.90;;;;;;5027049;28;20774;-77
2023/05/16 08:48:27;;;;;;;11.00;1.98;;;16.00;99.90;;;;;;5028777;28;20060;-77
2023/05/16 08:50:55;;;;;;;7.50;1.92;;;15.80;99.90;;;;;;5020812;28;20050;-76
2023/05/16 08:53:25;;;;;;;7.28;1.98;;;15.80;99.90;;;;;;5027870;28;20071;-77
2023/05/16 08:55:52;;;;;;;6.18;1.52;;;15.80;99.90;;;;;;5039698;28;20047;-77
2023/05/16 08:58:19;;;;;;;8.02;2.05;;;15.80;99.90;;;;;;5023213;28;20081;-76
2023/05/16 09:00:45;;;;;;;8.85;1.63;;;15.90;99.90;;;;;;5036648;28;20054;-76
2023/05/16 09:03:11;;;;;;;8.05;1.75;;;16.10;99.90;;;;;;5041393;28;20051;-76
2023/05/16 09:05:37;;;;;;;8.68;1.83;;;16.20;99.90;;;;;;5018142;28;20452;-77
2023/05/16 09:08:03;;;;;;;8.82;1.63;;;16.40;99.90;;;;;;5022216;28;20053;-76
2023/05/16 09:10:29;;;;;;;7.65;1.90;;;16.50;99.90;;;;;;5038071;28;20091;-77
2023/05/16 09:12:54;;;;;;;5.57;1.45;;;16.70;99.90;;;;;;5027296;28;20095;-76
2023/05/16 09:15:20;;;;;;;8.10;1.70;;;16.90;99.90;;;;;;5033005;28;20045;-78
2023/05/16 09:17:47;;;;;;;7.95;1.70;;;17.10;99.90;;;;;;5036974;28;20049;-76
2023/05/16 09:20:13;;;;;;;7.70;1.90;;;17.10;99.90;;;;;;5027227;28;20400;-77
2023/05/16 09:22:57;;;;;;;7.00;1.65;;;16.80;99.90;;;;;;5044223;28;20092;-74
2023/05/16 09:25:25;;;;;;;6.10;2.00;;;16.60;99.90;;;;;;5041142;28;20500;-76
2023/05/16 09:27:55;;;;;;;6.22;1.67;;;16.50;99.90;;;;;;5030820;28;20052;-77
2023/05/16 09:30:26;;;;;;;8.90;1.63;;;16.30;99.90;;;;;;5026812;28;20407;-77
2023/05/16 09:32:52;;;;;;;6.28;1.70;;;15.90;99.90;;;;;;5033533;28;20061;-75
2023/05/16 09:35:20;;;;;;;12.13;2.13;;;15.60;99.90;;;;;;5038180;28;20056;-75
2023/05/16 09:37:46;;;;;;;8.10;1.73;;;15.50;99.90;;;;;;5027028;28;20118;-77
2023/05/16 09:40:12;;;;;;;8.18;1.88;;;15.50;99.90;;;;;;5030560;28;20048;-76
2023/05/16 09:42:40;;;;;;;5.32;1.40;;;15.80;99.90;;;;;;5030992;28;20487;-76
2023/05/16 09:45:13;;;;;;;8.95;1.77;;;15.90;99.90;;;;;;5015167;28;20081;-75
2023/05/16 09:47:45;;;;;;;8.02;2.00;;;15.70;99.90;;;;;;5040555;28;20125;-76
2023/05/16 09:50:13;;;;;;;8.63;1.75;;;15.70;99.90;;;;;;5036632;28;20044;-76
2023/05/16 09:52:39;;;;;;;4.88;1.30;;;15.70;99.90;;;;;;5035416;28;20467;-76
2023/05/16 09:55:09;;;;;;;7.65;1.92;;;15.40;99.90;;;;;;5033865;28;20948;-76
2023/05/16 09:57:39;;;;;;;5.75;1.40;;;15.40;99.90;;;;;;5017985;28;20102;-76
2023/05/16 10:00:09;;;;;;;8.10;1.67;;;15.80;99.90;;;;;;5023104;28;20060;-76
2023/05/16 10:02:36;;;;;;;8.05;1.52;;;16.30;99.90;;;;;;5037128;28;20038;-76
2023/05/16 10:05:02;;;;;;;7.35;1.60;;;16.40;99.90;;;;;;5036115;28;20049;-76
2023/05/16 10:07:31;;;;;;;9.48;1.60;;;16.40;99.90;;;;;;5023079;28;20492;-76
2023/05/16 10:09:59;;;;;;;7.63;2.35;;;16.30;99.90;;;;;;5038179;28;20846;-76
2023/05/16 10:12:30;;;;;;;7.50;1.60;;;16.20;99.90;;;;;;5034491;28;20045;-78
2023/05/16 10:14:56;;;;;;;6.65;1.80;;;15.90;99.90;;;;;;5028637;28;20081;-77
2023/05/16 10:17:23;;;;;;;5.57;1.50;;;15.80;99.90;;;;;;5034926;28;20064;-76
2023/05/16 10:19:50;;;;;;;7.63;1.90;;;15.50;99.90;;;;;;5040320;28;20055;-76
2023/05/16 10:22:16;;;;;;;8.68;1.83;;;15.10;99.90;;;;;;5037502;28;20451;-76
2023/05/16 10:24:59;;;;;;;6.40;1.88;;;14.80;99.90;;;;;;5051260;28;20133;-76
2023/05/16 10:27:26;;;;;;;6.10;1.40;;;14.50;99.90;;;;;;5018323;28;20045;-75
2023/05/16 10:29:53;;;;;;;6.85;1.30;;;14.10;99.90;;;;;;5036242;28;20420;-74
2023/05/16 10:32:22;;;;;;;5.05;1.40;;;14.00;99.90;;;;;;5026601;28;20136;-76
2023/05/16 10:34:47;;;;;;;6.32;1.33;;;14.10;99.90;;;;;;5023827;28;20060;-77
2023/05/16 10:37:13;;;;;;;6.97;1.48;;;14.10;99.90;;;;;;5030535;28;20076;-76
2023/05/16 10:39:39;;;;;;;3.92;1.27;;;14.10;99.90;;;;;;5017803;28;20064;-76
2023/05/16 10:42:05;;;;;;;4.85;1.70;;;14.00;99.90;;;;;;5036471;28;20037;-75
2023/05/16 10:44:32;;;;;;;8.48;1.60;;;13.90;99.90;;;;;;5037358;28;20109;-76
2023/05/16 10:47:02;;;;;;;8.55;1.80;;;13.70;99.90;;;;;;5038165;28;20033;-75
2023/05/16 10:49:29;;;;;;;10.80;1.88;;;13.50;99.90;;;;;;5057795;28;21308;-77
2023/05/16 10:52:16;;;;;;;8.93;1.38;;;13.30;99.90;;;;;;5027635;28;20048;-75
2023/05/16 10:54:51;;;;;;;6.57;1.45;;;13.20;99.90;;;;;;5017677;28;20049;-75
2023/05/16 10:57:22;;;;;;;5.88;1.58;;;13.20;99.90;;;;;;5033171;28;20270;-77
2023/05/16 10:59:50;;;;;;;5.43;1.13;;;13.40;99.90;;;;;;5024974;28;20049;-76
2023/05/16 11:02:33;;;;;;;6.07;1.23;;;13.60;99.90;;;;;;5040276;28;20053;-75
2023/05/16 11:05:01;;;;;;;5.70;1.35;;;13.70;99.90;;;;;;5020698;28;20077;-76
2023/05/16 11:07:33;;;;;;;4.40;1.35;;;13.90;99.90;;;;;;5033550;28;20084;-74
2023/05/16 11:10:06;;;;;;;6.85;1.42;;;14.00;99.90;;;;;;5030173;28;20405;-76
2023/05/16 11:12:51;;;;;;;5.28;1.45;;;14.00;99.90;;;;;;5023236;28;20045;-75
2023/05/16 11:15:29;;;;;;;7.30;2.05;;;14.20;99.90;;;;;;5040069;28;20044;-75
2023/05/16 11:18:09;;;;;;;7.10;1.80;;;14.50;99.90;;;;;;5034028;28;20687;-76
2023/05/16 11:20:36;;;;;;;5.88;1.42;;;14.70;99.90;;;;;;5033733;28;20558;-75
2023/05/16 11:23:20;;;;;;;5.07;1.33;;;14.90;99.90;;;;;;5011858;28;20380;-75
2023/05/16 11:25:59;;;;;;;4.75;1.50;;;15.00;99.90;;;;;;5029450;28;20041;-76
2023/05/16 11:28:25;;;;;;;7.20;1.45;;;15.10;99.90;;;;;;5015432;28;20586;-77
2023/05/16 11:30:58;;;;;;;5.80;1.58;;;15.10;99.90;;;;;;5034562;28;20190;-77
2023/05/16 11:33:24;;;;;;;8.10;1.90;;;15.20;99.90;;;;;;5029848;28;20053;-77
2023/05/16 11:36:01;;;;;;;7.25;1.50;;;15.20;99.90;;;;;;5030481;28;20042;-77
2023/05/16 11:38:30;;;;;;;6.40;1.50;;;15.40;99.90;;;;;;5018358;28;20107;-76
2023/05/16 11:41:07;;;;;;;4.78;1.58;;;15.60;99.90;;;;;;5034147;28;20715;-76
2023/05/16 11:43:42;;;;;;;5.50;1.63;;;16.30;99.90;;;;;;5020641;28;20045;-76
2023/05/16 11:46:15;;;;;;;5.70;1.65;;;15.50;99.90;;;;;;5033787;28;20044;-77
2023/05/16 11:48:41;;;;;;;5.85;1.38;;;15.70;99.90;;;;;;5040287;28;20080;-76
2023/05/16 11:51:08;;;;;;;8.55;1.48;;;15.70;99.90;;;;;;5036397;28;20407;-77
2023/05/16 11:53:34;;;;;;;7.97;1.27;;;15.70;99.90;;;;;;5034651;28;20504;-76
2023/05/16 11:56:08;;;;;;;7.75;1.65;;;15.80;99.90;;;;;;5034041;28;20045;-76
2023/05/16 11:58:35;;;;;;;5.28;1.25;;;15.90;99.90;;;;;;5032339;28;20299;-76
2023/05/16 12:01:03;;;;;;;7.95;1.80;;;16.10;99.90;;;;;;5035399;28;20050;-77
2023/05/16 12:03:32;;;;;;;5.13;1.40;;;16.10;99.90;;;;;;5024140;28;20593;-76
2023/05/16 12:05:59;;;;;;;6.88;1.88;;;16.10;99.90;;;;;;5036068;28;20053;-75
2023/05/16 12:08:25;;;;;;;7.15;2.03;;;16.10;99.90;;;;;;5024035;28;20140;-76
2023/05/16 12:10:52;;;;;;;8.00;1.67;;;16.20;99.90;;;;;;5035853;28;20128;-77
2023/05/16 12:13:19;;;;;;;8.25;1.83;;;16.10;99.90;;;;;;5033441;28;20496;-76
2023/05/16 12:15:46;;;;;;;6.18;1.90;;;16.10;99.90;;;;;;5023442;28;20181;-77
2023/05/16 12:18:13;;;;;;;4.63;1.50;;;16.10;99.90;;;;;;5036677;28;20059;-76
2023/05/16 12:20:39;;;;;;;4.70;1.90;;;16.10;99.90;;;;;;5037477;28;20053;-75
2023/05/16 12:23:11;;;;;;;6.75;1.77;;;15.90;99.90;;;;;;5033965;28;20504;-76
2023/05/16 12:25:45;;;;;;;8.10;1.50;;;15.80;99.90;;;;;;5039168;28;20045;-76
2023/05/16 12:28:13;;;;;;;4.68;1.40;;;15.80;99.90;;;;;;5018940;28;20200;-76
2023/05/16 12:30:41;;;;;;;4.65;1.30;;;16.00;99.90;;;;;;5026575;28;20192;-76
2023/05/16 12:33:13;;;;;;;3.92;1.10;;;16.20;99.90;;;;;;5043008;28;20488;-76
2023/05/16 12:35:44;;;;;;;4.30;1.25;;;16.60;99.90;;;;;;5035036;28;20195;-77
2023/05/16 12:38:14;;;;;;;4.53;1.20;;;16.90;99.90;;;;;;5031049;28;20099;-76
2023/05/16 12:40:43;;;;;;;3.78;1.13;;;16.80;99.90;;;;;;5033064;28;20083;-77
2023/05/16 12:43:16;;;;;;;6.40;1.70;;;16.80;99.90;;;;;;5025324;28;20500;-76
2023/05/16 12:45:48;;;;;;;5.13;1.58;;;16.70;99.90;;;;;;5033438;28;20128;-76
2023/05/16 12:48:14;;;;;;;5.20;2.00;;;16.60;99.90;;;;;;5027079;28;20385;-76
2023/05/16 12:50:45;;;;;;;5.05;1.77;;;16.70;99.90;;;;;;5017816;28;20056;-77
2023/05/16 12:53:15;;;;;;;4.93;2.00;;;16.70;99.90;;;;;;5035082;28;20605;-77
2023/05/16 12:55:42;;;;;;;7.57;2.25;;;16.90;99.90;;;;;;5023604;28;20076;-76